sensor_id;sensor_type;location;lat;lon;timestamp;P1;durP1;ratioP1;P2;durP2;ratioP2
577;SDS011;275;48.492;9.214;2022-10-12T00:00:47;36.80;;;33.30;;
577;SDS011;275;48.492;9.214;2022-10-12T00:03:15;35.97;;;32.60;;
577;SDS011;275;48.492;9.214;2022-10-12T00:05:42;37.00;;;33.20;;
577;SDS011;275;48.492;9.214;2022-10-12T00:08:09;35.50;;;32.00;;
577;SDS011;275;48.492;9.214;2022-10-12T00:10:38;34.97;;;31.80;;
577;SDS011;275;48.492;9.214;2022-10-12T00:13:06;34.87;;;31.50;;
577;SDS011;275;48.492;9.214;2022-10-12T00:15:34;34.37;;;31.43;;
577;SDS011;275;48.492;9.214;2022-10-12T00:18:03;32.60;;;29.50;;
577;SDS011;275;48.492;9.214;2022-10-12T00:20:30;36.57;;;33.13;;
577;SDS011;275;48.492;9.214;2022-10-12T00:22:57;34.73;;;31.47;;
577;SDS011;275;48.492;9.214;2022-10-12T00:25:24;35.63;;;31.90;;
577;SDS011;275;48.492;9.214;2022-10-12T00:27:50;35.60;;;32.30;;
577;SDS011;275;48.492;9.214;2022-10-12T00:30:17;38.70;;;34.53;;
577;SDS011;275;48.492;9.214;2022-10-12T00:32:44;35.67;;;32.57;;
577;SDS011;275;48.492;9.214;2022-10-12T00:35:12;36.73;;;33.30;;
577;SDS011;275;48.492;9.214;2022-10-12T00:37:39;37.47;;;33.53;;
577;SDS011;275;48.492;9.214;2022-10-12T00:40:06;35.33;;;31.60;;
577;SDS011;275;48.492;9.214;2022-10-12T00:42:33;36.53;;;33.17;;
577;SDS011;275;48.492;9.214;2022-10-12T00:45:00;36.60;;;33.17;;
577;SDS011;275;48.492;9.214;2022-10-12T00:47:28;38.20;;;34.77;;
577;SDS011;275;48.492;9.214;2022-10-12T00:49:59;38.57;;;35.00;;
577;SDS011;275;48.492;9.214;2022-10-12T00:52:33;38.40;;;34.60;;
577;SDS011;275;48.492;9.214;2022-10-12T00:55:05;37.23;;;33.83;;
577;SDS011;275;48.492;9.214;2022-10-12T00:57:34;37.83;;;34.23;;
577;SDS011;275;48.492;9.214;2022-10-12T01:00:04;39.77;;;35.67;;
577;SDS011;275;48.492;9.214;2022-10-12T01:02:33;37.77;;;34.37;;
577;SDS011;275;48.492;9.214;2022-10-12T01:05:01;41.10;;;36.70;;
577;SDS011;275;48.492;9.214;2022-10-12T01:07:29;39.90;;;35.90;;
577;SDS011;275;48.492;9.214;2022-10-12T01:09:57;40.83;;;36.70;;
577;SDS011;275;48.492;9.214;2022-10-12T01:12:24;40.77;;;36.50;;
577;SDS011;275;48.492;9.214;2022-10-12T01:14:52;39.10;;;35.27;;
577;SDS011;275;48.492;9.214;2022-10-12T01:17:22;40.67;;;36.80;;
577;SDS011;275;48.492;9.214;2022-10-12T01:20:03;42.23;;;36.40;;
577;SDS011;275;48.492;9.214;2022-10-12T01:22:43;41.03;;;37.37;;
577;SDS011;275;48.492;9.214;2022-10-12T01:25:20;43.20;;;39.10;;
577;SDS011;275;48.492;9.214;2022-10-12T01:27:56;44.40;;;40.00;;
577;SDS011;275;48.492;9.214;2022-10-12T01:30:30;44.80;;;40.47;;
577;SDS011;275;48.492;9.214;2022-10-12T01:35:51;43.05;;;39.33;;
577;SDS011;275;48.492;9.214;2022-10-12T01:38:27;47.15;;;42.25;;
577;SDS011;275;48.492;9.214;2022-10-12T01:41:02;47.17;;;42.57;;
577;SDS011;275;48.492;9.214;2022-10-12T01:43:33;45.43;;;41.30;;
577;SDS011;275;48.492;9.214;2022-10-12T01:46:06;47.47;;;42.37;;
577;SDS011;275;48.492;9.214;2022-10-12T01:49:06;44.75;;;40.30;;
577;SDS011;275;48.492;9.214;2022-10-12T01:51:34;45.70;;;41.30;;
577;SDS011;275;48.492;9.214;2022-10-12T01:54:17;44.80;;;40.10;;
577;SDS011;275;48.492;9.214;2022-10-12T01:56:52;49.63;;;43.17;;
577;SDS011;275;48.492;9.214;2022-10-12T01:59:27;48.07;;;42.93;;
577;SDS011;275;48.492;9.214;2022-10-12T02:02:03;49.10;;;43.97;;
577;SDS011;275;48.492;9.214;2022-10-12T02:04:43;50.93;;;43.40;;
577;SDS011;275;48.492;9.214;2022-10-12T02:07:15;51.30;;;45.20;;
577;SDS011;275;48.492;9.214;2022-10-12T02:09:47;55.30;;;49.25;;
577;SDS011;275;48.492;9.214;2022-10-12T02:12:17;55.17;;;49.47;;
577;SDS011;275;48.492;9.214;2022-10-12T02:14:47;49.63;;;44.10;;
577;SDS011;275;48.492;9.214;2022-10-12T02:17:20;57.00;;;50.90;;
577;SDS011;275;48.492;9.214;2022-10-12T02:19:49;54.60;;;48.57;;
577;SDS011;275;48.492;9.214;2022-10-12T02:22:19;56.93;;;50.33;;
577;SDS011;275;48.492;9.214;2022-10-12T02:24:49;62.43;;;51.30;;
577;SDS011;275;48.492;9.214;2022-10-12T02:27:18;52.37;;;46.80;;
577;SDS011;275;48.492;9.214;2022-10-12T02:29:47;51.43;;;46.33;;
577;SDS011;275;48.492;9.214;2022-10-12T02:32:16;51.57;;;46.50;;
577;SDS011;275;48.492;9.214;2022-10-12T02:34:49;50.97;;;46.03;;
577;SDS011;275;48.492;9.214;2022-10-12T02:37:20;53.87;;;48.23;;
577;SDS011;275;48.492;9.214;2022-10-12T02:39:55;56.83;;;48.37;;
577;SDS011;275;48.492;9.214;2022-10-12T02:42:28;51.10;;;45.65;;
577;SDS011;275;48.492;9.214;2022-10-12T02:44:58;51.70;;;46.50;;
577;SDS011;275;48.492;9.214;2022-10-12T02:47:29;49.03;;;44.07;;
577;SDS011;275;48.492;9.214;2022-10-12T02:49:59;48.90;;;43.90;;
577;SDS011;275;48.492;9.214;2022-10-12T02:52:27;47.73;;;42.77;;
577;SDS011;275;48.492;9.214;2022-10-12T02:54:55;44.67;;;39.97;;
577;SDS011;275;48.492;9.214;2022-10-12T02:57:23;52.03;;;42.67;;
577;SDS011;275;48.492;9.214;2022-10-12T02:59:49;50.27;;;42.00;;
577;SDS011;275;48.492;9.214;2022-10-12T03:02:16;44.07;;;39.77;;
577;SDS011;275;48.492;9.214;2022-10-12T03:04:44;44.80;;;40.17;;
577;SDS011;275;48.492;9.214;2022-10-12T03:07:11;45.17;;;40.27;;
577;SDS011;275;48.492;9.214;2022-10-12T03:09:38;46.50;;;41.90;;
577;SDS011;275;48.492;9.214;2022-10-12T03:12:05;46.67;;;41.83;;
577;SDS011;275;48.492;9.214;2022-10-12T03:14:31;47.10;;;41.60;;
577;SDS011;275;48.492;9.214;2022-10-12T03:16:59;47.63;;;42.70;;
577;SDS011;275;48.492;9.214;2022-10-12T03:19:26;47.23;;;42.13;;
577;SDS011;275;48.492;9.214;2022-10-12T03:21:54;45.87;;;40.97;;
577;SDS011;275;48.492;9.214;2022-10-12T03:24:21;55.40;;;43.80;;
577;SDS011;275;48.492;9.214;2022-10-12T03:26:47;47.67;;;42.58;;
577;SDS011;275;48.492;9.214;2022-10-12T03:29:14;52.40;;;44.80;;
577;SDS011;275;48.492;9.214;2022-10-12T03:31:41;50.27;;;44.13;;
577;SDS011;275;48.492;9.214;2022-10-12T03:34:08;45.23;;;40.47;;
577;SDS011;275;48.492;9.214;2022-10-12T03:36:34;47.40;;;42.60;;
577;SDS011;275;48.492;9.214;2022-10-12T03:39:02;45.80;;;41.40;;
577;SDS011;275;48.492;9.214;2022-10-12T03:41:29;46.47;;;41.77;;
577;SDS011;275;48.492;9.214;2022-10-12T03:43:56;47.13;;;42.10;;
577;SDS011;275;48.492;9.214;2022-10-12T03:46:23;45.30;;;40.60;;
577;SDS011;275;48.492;9.214;2022-10-12T03:48:49;50.83;;;42.03;;
577;SDS011;275;48.492;9.214;2022-10-12T03:51:16;47.77;;;42.87;;
577;SDS011;275;48.492;9.214;2022-10-12T03:53:43;45.00;;;40.30;;
577;SDS011;275;48.492;9.214;2022-10-12T03:56:11;46.07;;;41.17;;
577;SDS011;275;48.492;9.214;2022-10-12T03:58:38;47.50;;;42.27;;
577;SDS011;275;48.492;9.214;2022-10-12T04:01:05;50.42;;;44.88;;
577;SDS011;275;48.492;9.214;2022-10-12T04:03:31;49.47;;;44.08;;
577;SDS011;275;48.492;9.214;2022-10-12T04:05:58;47.07;;;41.90;;
577;SDS011;275;48.492;9.214;2022-10-12T04:08:25;48.70;;;43.50;;
577;SDS011;275;48.492;9.214;2022-10-12T04:10:52;47.20;;;42.43;;
577;SDS011;275;48.492;9.214;2022-10-12T04:13:21;48.00;;;43.00;;
577;SDS011;275;48.492;9.214;2022-10-12T04:15:48;48.27;;;43.00;;
577;SDS011;275;48.492;9.214;2022-10-12T04:18:15;46.80;;;42.03;;
577;SDS011;275;48.492;9.214;2022-10-12T04:20:41;46.17;;;41.53;;
577;SDS011;275;48.492;9.214;2022-10-12T04:23:08;46.30;;;41.60;;
577;SDS011;275;48.492;9.214;2022-10-12T04:25:35;48.00;;;43.10;;
577;SDS011;275;48.492;9.214;2022-10-12T04:28:02;44.10;;;39.77;;
577;SDS011;275;48.492;9.214;2022-10-12T04:30:30;41.50;;;37.07;;
577;SDS011;275;48.492;9.214;2022-10-12T04:32:57;44.03;;;39.47;;
577;SDS011;275;48.492;9.214;2022-10-12T04:35:23;43.17;;;38.90;;
577;SDS011;275;48.492;9.214;2022-10-12T04:37:50;41.67;;;37.27;;
577;SDS011;275;48.492;9.214;2022-10-12T04:40:17;41.37;;;36.93;;
577;SDS011;275;48.492;9.214;2022-10-12T04:42:44;38.97;;;35.27;;
577;SDS011;275;48.492;9.214;2022-10-12T04:45:10;40.03;;;36.23;;
577;SDS011;275;48.492;9.214;2022-10-12T04:47:38;40.60;;;36.60;;
577;SDS011;275;48.492;9.214;2022-10-12T04:50:06;39.03;;;35.37;;
577;SDS011;275;48.492;9.214;2022-10-12T04:52:33;42.07;;;37.80;;
577;SDS011;275;48.492;9.214;2022-10-12T04:55:00;41.80;;;37.40;;
577;SDS011;275;48.492;9.214;2022-10-12T04:57:26;39.47;;;35.50;;
577;SDS011;275;48.492;9.214;2022-10-12T04:59:53;42.83;;;38.53;;
577;SDS011;275;48.492;9.214;2022-10-12T05:02:20;38.70;;;35.00;;
577;SDS011;275;48.492;9.214;2022-10-12T05:04:48;38.40;;;34.60;;
577;SDS011;275;48.492;9.214;2022-10-12T05:07:15;38.17;;;34.33;;
577;SDS011;275;48.492;9.214;2022-10-12T05:09:42;37.80;;;34.20;;
577;SDS011;275;48.492;9.214;2022-10-12T05:12:09;36.43;;;32.30;;
577;SDS011;275;48.492;9.214;2022-10-12T05:14:35;34.60;;;31.20;;
577;SDS011;275;48.492;9.214;2022-10-12T05:17:02;35.73;;;32.33;;
577;SDS011;275;48.492;9.214;2022-10-12T05:19:29;36.57;;;33.03;;
577;SDS011;275;48.492;9.214;2022-10-12T05:21:57;33.03;;;29.93;;
577;SDS011;275;48.492;9.214;2022-10-12T05:24:24;33.33;;;29.93;;
577;SDS011;275;48.492;9.214;2022-10-12T05:26:51;34.97;;;31.30;;
577;SDS011;275;48.492;9.214;2022-10-12T05:29:17;34.67;;;31.30;;
577;SDS011;275;48.492;9.214;2022-10-12T05:31:44;33.50;;;30.40;;
577;SDS011;275;48.492;9.214;2022-10-12T05:34:11;34.80;;;31.30;;
577;SDS011;275;48.492;9.214;2022-10-12T05:36:38;35.13;;;31.53;;
577;SDS011;275;48.492;9.214;2022-10-12T05:39:06;34.17;;;30.90;;
577;SDS011;275;48.492;9.214;2022-10-12T05:41:33;34.77;;;31.47;;
577;SDS011;275;48.492;9.214;2022-10-12T05:43:59;33.50;;;30.23;;
577;SDS011;275;48.492;9.214;2022-10-12T05:46:26;33.63;;;30.53;;
577;SDS011;275;48.492;9.214;2022-10-12T05:48:53;31.97;;;28.77;;
577;SDS011;275;48.492;9.214;2022-10-12T05:51:20;34.80;;;31.17;;
577;SDS011;275;48.492;9.214;2022-10-12T05:53:46;33.63;;;30.30;;
577;SDS011;275;48.492;9.214;2022-10-12T05:56:14;35.17;;;31.60;;
577;SDS011;275;48.492;9.214;2022-10-12T05:58:41;36.00;;;32.03;;
577;SDS011;275;48.492;9.214;2022-10-12T06:01:09;37.93;;;34.17;;
577;SDS011;275;48.492;9.214;2022-10-12T06:03:37;37.90;;;34.20;;
577;SDS011;275;48.492;9.214;2022-10-12T06:06:04;39.93;;;36.13;;
577;SDS011;275;48.492;9.214;2022-10-12T06:08:32;41.13;;;36.83;;
577;SDS011;275;48.492;9.214;2022-10-12T06:10:59;38.83;;;32.60;;
577;SDS011;275;48.492;9.214;2022-10-12T06:13:27;35.30;;;31.53;;
577;SDS011;275;48.492;9.214;2022-10-12T06:15:54;33.67;;;30.40;;
577;SDS011;275;48.492;9.214;2022-10-12T06:18:22;31.53;;;28.53;;
577;SDS011;275;48.492;9.214;2022-10-12T06:20:49;32.67;;;29.13;;
577;SDS011;275;48.492;9.214;2022-10-12T06:23:17;35.20;;;29.80;;
577;SDS011;275;48.492;9.214;2022-10-12T06:25:45;34.17;;;30.57;;
577;SDS011;275;48.492;9.214;2022-10-12T06:28:13;35.53;;;31.90;;
577;SDS011;275;48.492;9.214;2022-10-12T06:30:41;37.50;;;33.80;;
577;SDS011;275;48.492;9.214;2022-10-12T06:33:08;36.50;;;32.60;;
577;SDS011;275;48.492;9.214;2022-10-12T06:35:35;36.73;;;32.50;;
577;SDS011;275;48.492;9.214;2022-10-12T06:38:02;34.13;;;30.50;;
577;SDS011;275;48.492;9.214;2022-10-12T06:40:29;34.27;;;30.60;;
577;SDS011;275;48.492;9.214;2022-10-12T06:42:55;32.60;;;29.30;;
577;SDS011;275;48.492;9.214;2022-10-12T06:45:26;35.93;;;29.33;;
577;SDS011;275;48.492;9.214;2022-10-12T06:47:54;31.00;;;27.77;;
577;SDS011;275;48.492;9.214;2022-10-12T06:50:21;29.53;;;26.33;;
577;SDS011;275;48.492;9.214;2022-10-12T06:52:48;28.57;;;25.50;;
577;SDS011;275;48.492;9.214;2022-10-12T06:55:15;30.27;;;27.13;;
577;SDS011;275;48.492;9.214;2022-10-12T06:57:42;26.17;;;23.77;;
577;SDS011;275;48.492;9.214;2022-10-12T07:00:09;26.07;;;23.20;;
577;SDS011;275;48.492;9.214;2022-10-12T07:02:37;26.77;;;23.77;;
577;SDS011;275;48.492;9.214;2022-10-12T07:05:06;26.47;;;23.77;;
577;SDS011;275;48.492;9.214;2022-10-12T07:07:34;26.60;;;23.90;;
577;SDS011;275;48.492;9.214;2022-10-12T07:10:02;28.67;;;25.70;;
577;SDS011;275;48.492;9.214;2022-10-12T07:12:30;27.77;;;22.40;;
577;SDS011;275;48.492;9.214;2022-10-12T07:14:57;26.37;;;23.77;;
577;SDS011;275;48.492;9.214;2022-10-12T07:17:24;24.20;;;21.70;;
577;SDS011;275;48.492;9.214;2022-10-12T07:19:51;26.07;;;23.47;;
577;SDS011;275;48.492;9.214;2022-10-12T07:22:19;24.17;;;21.70;;
577;SDS011;275;48.492;9.214;2022-10-12T07:24:46;24.27;;;21.63;;
577;SDS011;275;48.492;9.214;2022-10-12T07:27:12;21.73;;;19.43;;
577;SDS011;275;48.492;9.214;2022-10-12T07:29:39;22.83;;;20.20;;
577;SDS011;275;48.492;9.214;2022-10-12T07:32:06;22.80;;;19.97;;
577;SDS011;275;48.492;9.214;2022-10-12T07:34:33;22.73;;;20.30;;
577;SDS011;275;48.492;9.214;2022-10-12T07:37:00;20.87;;;18.80;;
577;SDS011;275;48.492;9.214;2022-10-12T07:39:29;21.17;;;19.00;;
577;SDS011;275;48.492;9.214;2022-10-12T07:41:55;20.43;;;18.27;;
577;SDS011;275;48.492;9.214;2022-10-12T07:44:22;20.13;;;18.07;;
577;SDS011;275;48.492;9.214;2022-10-12T07:46:49;19.80;;;17.70;;
577;SDS011;275;48.492;9.214;2022-10-12T07:49:17;19.93;;;17.90;;
577;SDS011;275;48.492;9.214;2022-10-12T07:51:44;19.03;;;17.07;;
577;SDS011;275;48.492;9.214;2022-10-12T07:54:11;19.60;;;17.60;;
577;SDS011;275;48.492;9.214;2022-10-12T07:56:40;19.57;;;17.57;;
577;SDS011;275;48.492;9.214;2022-10-12T07:59:07;17.90;;;15.83;;
577;SDS011;275;48.492;9.214;2022-10-12T08:01:34;16.37;;;14.70;;
577;SDS011;275;48.492;9.214;2022-10-12T08:04:01;16.07;;;14.60;;
577;SDS011;275;48.492;9.214;2022-10-12T08:06:28;15.20;;;13.80;;
577;SDS011;275;48.492;9.214;2022-10-12T08:08:56;15.60;;;13.97;;
577;SDS011;275;48.492;9.214;2022-10-12T08:11:24;15.50;;;14.10;;
577;SDS011;275;48.492;9.214;2022-10-12T08:13:52;15.43;;;13.87;;
577;SDS011;275;48.492;9.214;2022-10-12T08:16:20;14.90;;;13.40;;
577;SDS011;275;48.492;9.214;2022-10-12T08:18:47;14.50;;;12.43;;
577;SDS011;275;48.492;9.214;2022-10-12T08:21:15;15.60;;;14.20;;
577;SDS011;275;48.492;9.214;2022-10-12T08:23:43;15.13;;;13.50;;
577;SDS011;275;48.492;9.214;2022-10-12T08:26:10;12.47;;;11.37;;
577;SDS011;275;48.492;9.214;2022-10-12T08:28:37;13.83;;;12.53;;
577;SDS011;275;48.492;9.214;2022-10-12T08:31:06;15.80;;;14.20;;
577;SDS011;275;48.492;9.214;2022-10-12T08:33:34;13.47;;;12.20;;
577;SDS011;275;48.492;9.214;2022-10-12T08:36:01;13.13;;;11.80;;
577;SDS011;275;48.492;9.214;2022-10-12T08:38:29;13.27;;;11.23;;
577;SDS011;275;48.492;9.214;2022-10-12T08:40:58;12.07;;;10.87;;
577;SDS011;275;48.492;9.214;2022-10-12T08:43:31;11.90;;;10.90;;
577;SDS011;275;48.492;9.214;2022-10-12T08:46:10;11.17;;;10.03;;
577;SDS011;275;48.492;9.214;2022-10-12T08:48:41;11.10;;;9.90;;
577;SDS011;275;48.492;9.214;2022-10-12T08:51:12;11.53;;;10.13;;
577;SDS011;275;48.492;9.214;2022-10-12T08:53:44;11.53;;;10.43;;
577;SDS011;275;48.492;9.214;2022-10-12T08:56:15;11.50;;;10.37;;
577;SDS011;275;48.492;9.214;2022-10-12T08:58:43;10.60;;;9.50;;
577;SDS011;275;48.492;9.214;2022-10-12T09:01:13;9.53;;;8.53;;
577;SDS011;275;48.492;9.214;2022-10-12T09:03:50;12.40;;;9.77;;
577;SDS011;275;48.492;9.214;2022-10-12T09:06:29;10.50;;;9.40;;
577;SDS011;275;48.492;9.214;2022-10-12T09:09:02;12.13;;;10.87;;
577;SDS011;275;48.492;9.214;2022-10-12T09:11:42;10.50;;;9.57;;
577;SDS011;275;48.492;9.214;2022-10-12T09:14:16;9.90;;;8.90;;
577;SDS011;275;48.492;9.214;2022-10-12T09:16:48;14.33;;;9.90;;
577;SDS011;275;48.492;9.214;2022-10-12T09:19:19;11.17;;;10.13;;
577;SDS011;275;48.492;9.214;2022-10-12T09:21:48;12.50;;;9.57;;
577;SDS011;275;48.492;9.214;2022-10-12T09:24:17;9.87;;;8.83;;
577;SDS011;275;48.492;9.214;2022-10-12T09:26:45;12.77;;;9.70;;
577;SDS011;275;48.492;9.214;2022-10-12T09:29:20;9.50;;;8.30;;
577;SDS011;275;48.492;9.214;2022-10-12T09:31:55;10.33;;;8.53;;
577;SDS011;275;48.492;9.214;2022-10-12T09:34:35;9.63;;;8.70;;
577;SDS011;275;48.492;9.214;2022-10-12T09:37:02;12.50;;;10.30;;
577;SDS011;275;48.492;9.214;2022-10-12T09:39:30;11.33;;;10.20;;
577;SDS011;275;48.492;9.214;2022-10-12T09:41:58;11.33;;;9.10;;
577;SDS011;275;48.492;9.214;2022-10-12T09:44:27;10.80;;;9.70;;
577;SDS011;275;48.492;9.214;2022-10-12T09:46:59;10.50;;;9.50;;
577;SDS011;275;48.492;9.214;2022-10-12T09:49:38;10.50;;;9.17;;
577;SDS011;275;48.492;9.214;2022-10-12T09:52:06;11.17;;;9.90;;
577;SDS011;275;48.492;9.214;2022-10-12T09:54:34;12.30;;;9.93;;
577;SDS011;275;48.492;9.214;2022-10-12T09:57:03;10.53;;;9.47;;
577;SDS011;275;48.492;9.214;2022-10-12T09:59:33;13.47;;;9.37;;
577;SDS011;275;48.492;9.214;2022-10-12T10:02:10;10.60;;;9.53;;
577;SDS011;275;48.492;9.214;2022-10-12T10:04:40;11.80;;;9.67;;
577;SDS011;275;48.492;9.214;2022-10-12T10:07:12;11.77;;;10.73;;
577;SDS011;275;48.492;9.214;2022-10-12T10:09:45;14.40;;;11.37;;
577;SDS011;275;48.492;9.214;2022-10-12T10:12:13;12.10;;;10.90;;
577;SDS011;275;48.492;9.214;2022-10-12T10:14:48;12.40;;;9.70;;
577;SDS011;275;48.492;9.214;2022-10-12T10:17:23;12.83;;;11.50;;
577;SDS011;275;48.492;9.214;2022-10-12T10:19:51;12.80;;;11.60;;
577;SDS011;275;48.492;9.214;2022-10-12T10:22:20;12.07;;;10.87;;
577;SDS011;275;48.492;9.214;2022-10-12T10:24:49;11.37;;;9.97;;
577;SDS011;275;48.492;9.214;2022-10-12T10:27:27;16.00;;;10.00;;
577;SDS011;275;48.492;9.214;2022-10-12T10:32:47;10.80;;;9.80;;
577;SDS011;275;48.492;9.214;2022-10-12T10:35:18;10.97;;;9.87;;
577;SDS011;275;48.492;9.214;2022-10-12T10:37:47;12.23;;;9.93;;
577;SDS011;275;48.492;9.214;2022-10-12T10:40:17;13.70;;;10.70;;
577;SDS011;275;48.492;9.214;2022-10-12T10:42:48;11.67;;;10.43;;
577;SDS011;275;48.492;9.214;2022-10-12T10:45:20;15.00;;;10.80;;
577;SDS011;275;48.492;9.214;2022-10-12T10:47:50;10.87;;;9.67;;
577;SDS011;275;48.492;9.214;2022-10-12T10:50:25;11.03;;;8.80;;
577;SDS011;275;48.492;9.214;2022-10-12T10:52:56;13.03;;;10.23;;
577;SDS011;275;48.492;9.214;2022-10-12T10:55:26;11.03;;;8.50;;
577;SDS011;275;48.492;9.214;2022-10-12T10:58:15;10.10;;;8.20;;
577;SDS011;275;48.492;9.214;2022-10-12T11:00:59;20.50;;;18.43;;
577;SDS011;275;48.492;9.214;2022-10-12T11:03:32;13.57;;;11.20;;
577;SDS011;275;48.492;9.214;2022-10-12T11:06:06;13.57;;;10.30;;
577;SDS011;275;48.492;9.214;2022-10-12T11:08:40;13.27;;;11.97;;
577;SDS011;275;48.492;9.214;2022-10-12T11:11:10;12.93;;;11.73;;
577;SDS011;275;48.492;9.214;2022-10-12T11:13:41;12.80;;;11.03;;
577;SDS011;275;48.492;9.214;2022-10-12T11:16:15;15.30;;;10.83;;
577;SDS011;275;48.492;9.214;2022-10-12T11:18:57;12.00;;;9.40;;
577;SDS011;275;48.492;9.214;2022-10-12T11:21:28;10.47;;;9.20;;
577;SDS011;275;48.492;9.214;2022-10-12T11:24:01;13.33;;;10.30;;
577;SDS011;275;48.492;9.214;2022-10-12T11:26:36;11.57;;;10.47;;
577;SDS011;275;48.492;9.214;2022-10-12T11:29:08;12.37;;;11.10;;
577;SDS011;275;48.492;9.214;2022-10-12T11:31:40;14.40;;;11.37;;
577;SDS011;275;48.492;9.214;2022-10-12T11:34:14;13.27;;;11.03;;
577;SDS011;275;48.492;9.214;2022-10-12T11:36:45;13.03;;;11.50;;
577;SDS011;275;48.492;9.214;2022-10-12T11:39:15;13.70;;;10.10;;
577;SDS011;275;48.492;9.214;2022-10-12T11:41:46;11.60;;;9.80;;
577;SDS011;275;48.492;9.214;2022-10-12T11:44:16;12.17;;;10.97;;
577;SDS011;275;48.492;9.214;2022-10-12T11:46:46;12.17;;;9.77;;
577;SDS011;275;48.492;9.214;2022-10-12T11:49:18;13.50;;;11.20;;
577;SDS011;275;48.492;9.214;2022-10-12T11:51:53;14.27;;;10.50;;
577;SDS011;275;48.492;9.214;2022-10-12T11:54:25;15.60;;;11.97;;
577;SDS011;275;48.492;9.214;2022-10-12T11:56:56;18.50;;;10.47;;
577;SDS011;275;48.492;9.214;2022-10-12T11:59:28;15.60;;;11.93;;
577;SDS011;275;48.492;9.214;2022-10-12T12:02:01;14.27;;;11.90;;
577;SDS011;275;48.492;9.214;2022-10-12T12:04:36;14.57;;;11.23;;
577;SDS011;275;48.492;9.214;2022-10-12T12:13:06;15.30;;;11.50;;
577;SDS011;275;48.492;9.214;2022-10-12T12:15:42;14.50;;;11.93;;
577;SDS011;275;48.492;9.214;2022-10-12T12:19:12;13.00;;;10.30;;
577;SDS011;275;48.492;9.214;2022-10-12T12:24:59;12.27;;;9.60;;
577;SDS011;275;48.492;9.214;2022-10-12T12:27:31;16.70;;;11.33;;
577;SDS011;275;48.492;9.214;2022-10-12T12:30:03;13.63;;;10.53;;
577;SDS011;275;48.492;9.214;2022-10-12T12:32:39;13.67;;;11.60;;
577;SDS011;275;48.492;9.214;2022-10-12T12:35:17;17.30;;;11.83;;
577;SDS011;275;48.492;9.214;2022-10-12T12:37:46;11.33;;;10.27;;
577;SDS011;275;48.492;9.214;2022-10-12T12:40:21;14.50;;;9.97;;
577;SDS011;275;48.492;9.214;2022-10-12T12:42:49;15.37;;;11.27;;
577;SDS011;275;48.492;9.214;2022-10-12T12:48:07;10.90;;;9.43;;
577;SDS011;275;48.492;9.214;2022-10-12T12:50:35;11.73;;;9.07;;
577;SDS011;275;48.492;9.214;2022-10-12T12:53:06;17.00;;;11.33;;
577;SDS011;275;48.492;9.214;2022-10-12T12:55:46;13.00;;;9.90;;
577;SDS011;275;48.492;9.214;2022-10-12T12:58:34;14.37;;;9.87;;
577;SDS011;275;48.492;9.214;2022-10-12T13:07:15;12.63;;;8.60;;
577;SDS011;275;48.492;9.214;2022-10-12T13:10:11;11.30;;;9.10;;
577;SDS011;275;48.492;9.214;2022-10-12T13:12:59;15.00;;;9.97;;
577;SDS011;275;48.492;9.214;2022-10-12T13:15:51;15.70;;;9.47;;
577;SDS011;275;48.492;9.214;2022-10-12T13:21:15;12.97;;;8.37;;
577;SDS011;275;48.492;9.214;2022-10-12T13:23:45;12.30;;;8.53;;
577;SDS011;275;48.492;9.214;2022-10-12T13:26:14;12.90;;;8.70;;
577;SDS011;275;48.492;9.214;2022-10-12T13:28:48;12.03;;;8.20;;
577;SDS011;275;48.492;9.214;2022-10-12T13:31:17;13.93;;;9.50;;
577;SDS011;275;48.492;9.214;2022-10-12T13:33:52;11.60;;;9.03;;
577;SDS011;275;48.492;9.214;2022-10-12T13:36:25;16.90;;;8.67;;
577;SDS011;275;48.492;9.214;2022-10-12T13:38:54;11.27;;;7.60;;
577;SDS011;275;48.492;9.214;2022-10-12T13:41:22;15.23;;;6.97;;
577;SDS011;275;48.492;9.214;2022-10-12T13:43:52;10.47;;;8.00;;
577;SDS011;275;48.492;9.214;2022-10-12T13:46:33;16.00;;;8.17;;
577;SDS011;275;48.492;9.214;2022-10-12T13:49:02;10.93;;;7.07;;
577;SDS011;275;48.492;9.214;2022-10-12T13:51:40;11.53;;;7.30;;
577;SDS011;275;48.492;9.214;2022-10-12T13:54:15;10.10;;;8.00;;
577;SDS011;275;48.492;9.214;2022-10-12T13:56:43;12.30;;;7.97;;
577;SDS011;275;48.492;9.214;2022-10-12T13:59:14;10.83;;;6.60;;
577;SDS011;275;48.492;9.214;2022-10-12T14:01:47;11.30;;;7.27;;
577;SDS011;275;48.492;9.214;2022-10-12T14:04:15;12.13;;;6.63;;
577;SDS011;275;48.492;9.214;2022-10-12T14:06:42;14.47;;;8.03;;
577;SDS011;275;48.492;9.214;2022-10-12T14:09:13;12.30;;;7.60;;
577;SDS011;275;48.492;9.214;2022-10-12T14:11:43;8.97;;;7.10;;
577;SDS011;275;48.492;9.214;2022-10-12T14:14:15;10.33;;;6.83;;
577;SDS011;275;48.492;9.214;2022-10-12T14:16:44;10.90;;;7.33;;
577;SDS011;275;48.492;9.214;2022-10-12T14:19:18;9.47;;;7.90;;
577;SDS011;275;48.492;9.214;2022-10-12T14:21:46;10.43;;;6.47;;
577;SDS011;275;48.492;9.214;2022-10-12T14:24:15;13.10;;;8.00;;
577;SDS011;275;48.492;9.214;2022-10-12T14:26:44;11.67;;;7.30;;
577;SDS011;275;48.492;9.214;2022-10-12T14:29:27;10.90;;;8.30;;
577;SDS011;275;48.492;9.214;2022-10-12T14:31:58;13.53;;;8.37;;
577;SDS011;275;48.492;9.214;2022-10-12T14:34:34;12.83;;;8.00;;
577;SDS011;275;48.492;9.214;2022-10-12T14:37:04;11.23;;;8.70;;
577;SDS011;275;48.492;9.214;2022-10-12T14:39:43;14.67;;;9.17;;
577;SDS011;275;48.492;9.214;2022-10-12T14:42:17;14.40;;;9.67;;
577;SDS011;275;48.492;9.214;2022-10-12T14:44:46;10.70;;;8.40;;
577;SDS011;275;48.492;9.214;2022-10-12T14:47:16;11.20;;;8.03;;
577;SDS011;275;48.492;9.214;2022-10-12T14:49:46;10.63;;;8.13;;
577;SDS011;275;48.492;9.214;2022-10-12T14:52:16;9.37;;;8.37;;
577;SDS011;275;48.492;9.214;2022-10-12T14:54:48;13.57;;;10.20;;
577;SDS011;275;48.492;9.214;2022-10-12T14:57:16;15.30;;;9.00;;
577;SDS011;275;48.492;9.214;2022-10-12T14:59:44;11.87;;;8.53;;
577;SDS011;275;48.492;9.214;2022-10-12T15:02:13;14.83;;;8.97;;
577;SDS011;275;48.492;9.214;2022-10-12T15:04:41;13.90;;;9.57;;
577;SDS011;275;48.492;9.214;2022-10-12T15:07:11;9.77;;;8.30;;
577;SDS011;275;48.492;9.214;2022-10-12T15:09:40;9.87;;;8.37;;
577;SDS011;275;48.492;9.214;2022-10-12T15:12:08;10.20;;;9.17;;
577;SDS011;275;48.492;9.214;2022-10-12T15:14:37;14.40;;;9.80;;
577;SDS011;275;48.492;9.214;2022-10-12T15:17:04;11.13;;;9.20;;
577;SDS011;275;48.492;9.214;2022-10-12T15:19:32;12.97;;;8.90;;
577;SDS011;275;48.492;9.214;2022-10-12T15:21:58;14.93;;;10.40;;
577;SDS011;275;48.492;9.214;2022-10-12T15:24:25;11.13;;;9.57;;
577;SDS011;275;48.492;9.214;2022-10-12T15:26:52;11.10;;;9.53;;
577;SDS011;275;48.492;9.214;2022-10-12T15:29:19;12.73;;;9.70;;
577;SDS011;275;48.492;9.214;2022-10-12T15:31:46;12.73;;;9.27;;
577;SDS011;275;48.492;9.214;2022-10-12T15:34:13;14.13;;;9.30;;
577;SDS011;275;48.492;9.214;2022-10-12T15:36:42;11.77;;;8.97;;
577;SDS011;275;48.492;9.214;2022-10-12T15:39:08;12.60;;;8.47;;
577;SDS011;275;48.492;9.214;2022-10-12T15:41:36;10.93;;;8.17;;
577;SDS011;275;48.492;9.214;2022-10-12T15:44:02;14.97;;;9.70;;
577;SDS011;275;48.492;9.214;2022-10-12T15:46:29;16.37;;;10.40;;
577;SDS011;275;48.492;9.214;2022-10-12T15:48:56;17.03;;;10.77;;
577;SDS011;275;48.492;9.214;2022-10-12T15:51:23;13.30;;;9.50;;
577;SDS011;275;48.492;9.214;2022-10-12T15:53:52;17.40;;;9.30;;
577;SDS011;275;48.492;9.214;2022-10-12T15:56:20;11.40;;;8.70;;
577;SDS011;275;48.492;9.214;2022-10-12T15:58:47;15.00;;;9.97;;
577;SDS011;275;48.492;9.214;2022-10-12T16:01:16;12.63;;;9.80;;
577;SDS011;275;48.492;9.214;2022-10-12T16:03:43;14.13;;;8.73;;